WZZ2DM LHBP-LRTM
Flight info
| Callsign | WZZ2DM |
|---|---|
| Flight time | 0h 41m |
| Altitude | 35000 |
| Route | VETIK2L VETIK DCT UVERA DCT RILAS DCT LARMU LARMU1Y |
| Aircraft | A320/M-SDE1E2E3FGIJ1J4RWXY/LB1 |
Departure
| Time | 2026-04-20 17:59 |
|---|---|
| Airport | Budapest Liszt Ferenc International Airport (LHBP) |
Arrival
| Time | 2026-04-20 18:41 |
|---|---|
| Airport | Târgu Mureş Transilvania International Airport (LRTM) |
| Time | Latitude | Longitude | Altitude | Speed | Heading |
|---|---|---|---|---|---|
| 2026-04-20 17:27 | 47.43555 | 19.25816 | 458 ft | 0 kts | 312° |
| 2026-04-20 17:51 | 47.43544 | 19.25833 | 457 ft | 4 kts | 305° |
| 2026-04-20 17:52 | 47.43533 | 19.25868 | 457 ft | 4 kts | 267° |
| 2026-04-20 17:52 | 47.43538 | 19.25891 | 457 ft | 0 kts | 222° |
| 2026-04-20 17:55 | 47.43519 | 19.25865 | 457 ft | 7 kts | 222° |
| 2026-04-20 17:55 | 47.43489 | 19.25811 | 457 ft | 7 kts | 264° |
| 2026-04-20 17:55 | 47.43524 | 19.25746 | 457 ft | 9 kts | 313° |
| 2026-04-20 17:55 | 47.43554 | 19.25688 | 457 ft | 7 kts | 279° |
| 2026-04-20 17:56 | 47.43528 | 19.25635 | 457 ft | 6 kts | 223° |
| 2026-04-20 17:56 | 47.43491 | 19.25585 | 457 ft | 9 kts | 221° |
| 2026-04-20 17:56 | 47.43438 | 19.25515 | 456 ft | 12 kts | 222° |
| 2026-04-20 17:56 | 47.43379 | 19.25435 | 457 ft | 12 kts | 222° |
| 2026-04-20 17:57 | 47.43321 | 19.25356 | 457 ft | 11 kts | 222° |
| 2026-04-20 17:57 | 47.43263 | 19.25279 | 456 ft | 11 kts | 222° |
| 2026-04-20 17:57 | 47.43206 | 19.25203 | 457 ft | 11 kts | 223° |
| 2026-04-20 17:57 | 47.43151 | 19.25129 | 456 ft | 11 kts | 222° |
| 2026-04-20 17:58 | 47.43099 | 19.25057 | 457 ft | 10 kts | 224° |
| 2026-04-20 17:58 | 47.43081 | 19.24977 | 458 ft | 8 kts | 290° |
| 2026-04-20 17:58 | 47.43112 | 19.24921 | 458 ft | 0 kts | 312° |
| 2026-04-20 17:58 | 47.43114 | 19.24918 | 458 ft | 3 kts | 312° |
| 2026-04-20 17:59 | 47.43245 | 19.24708 | 456 ft | 64 kts | 312° |
| 2026-04-20 17:59 | 47.43694 | 19.23982 | 454 ft | 125 kts | 313° |
| 2026-04-20 17:59 | 47.44344 | 19.22952 | 830 ft | 139 kts | 313° |
| 2026-04-20 17:59 | 47.44996 | 19.21897 | 1515 ft | 139 kts | 313° |
| 2026-04-20 18:00 | 47.45434 | 19.21186 | 1994 ft | 138 kts | 312° |
| 2026-04-20 18:00 | 47.46076 | 19.20142 | 2680 ft | 137 kts | 313° |
| 2026-04-20 18:00 | 47.46714 | 19.19105 | 3318 ft | 136 kts | 313° |
| 2026-04-20 18:00 | 47.47345 | 19.18079 | 3910 ft | 136 kts | 313° |
| 2026-04-20 18:01 | 47.47997 | 19.17021 | 4382 ft | 147 kts | 315° |
| 2026-04-20 18:01 | 47.48833 | 19.15957 | 4694 ft | 170 kts | 326° |
| 2026-04-20 18:01 | 47.49937 | 19.15063 | 5001 ft | 194 kts | 337° |
| 2026-04-20 18:01 | 47.51325 | 19.14504 | 5424 ft | 220 kts | 351° |
| 2026-04-20 18:02 | 47.52942 | 19.14530 | 5931 ft | 247 kts | 9° |
| 2026-04-20 18:02 | 47.54530 | 19.15709 | 6671 ft | 268 kts | 39° |
| 2026-04-20 18:02 | 47.55514 | 19.18067 | 7523 ft | 284 kts | 72° |
| 2026-04-20 18:02 | 47.55540 | 19.21040 | 8414 ft | 297 kts | 97° |
| 2026-04-20 18:03 | 47.55072 | 19.24093 | 9328 ft | 303 kts | 103° |
| 2026-04-20 18:03 | 47.54465 | 19.27079 | 10147 ft | 310 kts | 106° |
| 2026-04-20 18:03 | 47.53779 | 19.30222 | 10524 ft | 334 kts | 106° |
| 2026-04-20 18:03 | 47.53050 | 19.33572 | 11026 ft | 347 kts | 106° |
| 2026-04-20 18:04 | 47.52327 | 19.36987 | 11872 ft | 349 kts | 106° |
| 2026-04-20 18:04 | 47.51622 | 19.40447 | 12712 ft | 352 kts | 105° |
| 2026-04-20 18:04 | 47.50931 | 19.43945 | 13552 ft | 355 kts | 105° |
| 2026-04-20 18:04 | 47.50245 | 19.47480 | 14320 ft | 359 kts | 105° |
| 2026-04-20 18:05 | 47.48865 | 19.54653 | 15682 ft | 367 kts | 105° |
| 2026-04-20 18:05 | 47.48159 | 19.58313 | 16355 ft | 372 kts | 105° |
| 2026-04-20 18:05 | 47.47445 | 19.62005 | 17026 ft | 376 kts | 105° |
| 2026-04-20 18:06 | 47.46718 | 19.65752 | 17689 ft | 381 kts | 105° |
| 2026-04-20 18:06 | 47.46308 | 19.69596 | 18317 ft | 385 kts | 92° |
| 2026-04-20 18:06 | 47.46160 | 19.73584 | 18912 ft | 389 kts | 92° |
| 2026-04-20 18:06 | 47.46021 | 19.77605 | 19496 ft | 393 kts | 91° |
| 2026-04-20 18:07 | 47.45887 | 19.81673 | 20099 ft | 398 kts | 91° |
| 2026-04-20 18:07 | 47.45751 | 19.85783 | 20688 ft | 403 kts | 92° |
| 2026-04-20 18:07 | 47.45611 | 19.89888 | 21261 ft | 407 kts | 92° |
| 2026-04-20 18:07 | 47.45462 | 19.94150 | 21815 ft | 412 kts | 92° |
| 2026-04-20 18:08 | 47.45316 | 19.98346 | 22356 ft | 417 kts | 92° |
| 2026-04-20 18:08 | 47.45162 | 20.02657 | 22924 ft | 422 kts | 92° |
| 2026-04-20 18:08 | 47.45003 | 20.07006 | 23474 ft | 426 kts | 92° |
| 2026-04-20 18:08 | 47.44840 | 20.11414 | 23946 ft | 431 kts | 92° |
| 2026-04-20 18:09 | 47.44675 | 20.15863 | 24430 ft | 435 kts | 92° |
| 2026-04-20 18:09 | 47.44508 | 20.20361 | 24914 ft | 438 kts | 92° |
| 2026-04-20 18:09 | 47.44337 | 20.24884 | 25392 ft | 442 kts | 92° |
| 2026-04-20 18:09 | 47.44163 | 20.29369 | 25856 ft | 445 kts | 92° |
| 2026-04-20 18:10 | 47.43981 | 20.33970 | 26335 ft | 448 kts | 92° |
| 2026-04-20 18:10 | 47.43799 | 20.38582 | 26810 ft | 451 kts | 92° |
| 2026-04-20 18:10 | 47.43611 | 20.43234 | 27278 ft | 454 kts | 92° |
| 2026-04-20 18:10 | 47.43426 | 20.47915 | 27735 ft | 457 kts | 92° |
| 2026-04-20 18:11 | 47.43238 | 20.52627 | 28183 ft | 460 kts | 92° |
| 2026-04-20 18:11 | 47.43044 | 20.57363 | 28619 ft | 462 kts | 92° |
| 2026-04-20 18:11 | 47.42848 | 20.62123 | 29052 ft | 465 kts | 92° |
| 2026-04-20 18:11 | 47.42649 | 20.66910 | 29488 ft | 468 kts | 92° |
| 2026-04-20 18:12 | 47.42446 | 20.71720 | 29919 ft | 471 kts | 92° |
| 2026-04-20 18:12 | 47.42245 | 20.76494 | 30287 ft | 473 kts | 92° |
| 2026-04-20 18:12 | 47.42038 | 20.81374 | 30642 ft | 476 kts | 92° |
| 2026-04-20 18:12 | 47.41826 | 20.86278 | 30993 ft | 480 kts | 92° |
| 2026-04-20 18:13 | 47.41611 | 20.91212 | 31339 ft | 483 kts | 92° |
| 2026-04-20 18:13 | 47.41396 | 20.96172 | 31750 ft | 484 kts | 92° |
| 2026-04-20 18:13 | 47.41180 | 21.01136 | 32245 ft | 483 kts | 92° |
| 2026-04-20 18:13 | 47.40959 | 21.06099 | 32718 ft | 484 kts | 92° |
| 2026-04-20 18:14 | 47.40735 | 21.10997 | 33182 ft | 484 kts | 92° |
| 2026-04-20 18:14 | 47.40505 | 21.15966 | 33655 ft | 484 kts | 92° |
| 2026-04-20 18:14 | 47.40274 | 21.20921 | 34086 ft | 484 kts | 92° |
| 2026-04-20 18:14 | 47.40039 | 21.25880 | 34470 ft | 484 kts | 92° |
| 2026-04-20 18:15 | 47.39802 | 21.30865 | 34723 ft | 487 kts | 92° |
| 2026-04-20 18:15 | 47.39561 | 21.35880 | 34887 ft | 490 kts | 92° |
| 2026-04-20 18:15 | 47.39084 | 21.45786 | 34951 ft | 481 kts | 92° |
| 2026-04-20 18:16 | 47.38605 | 21.55616 | 34942 ft | 479 kts | 92° |
| 2026-04-20 18:16 | 47.38118 | 21.65415 | 34946 ft | 478 kts | 93° |
| 2026-04-20 18:17 | 47.37622 | 21.75219 | 34952 ft | 478 kts | 93° |
| 2026-04-20 18:17 | 47.37113 | 21.84992 | 34950 ft | 478 kts | 93° |
| 2026-04-20 18:18 | 47.36594 | 21.94718 | 34924 ft | 479 kts | 93° |
| 2026-04-20 18:18 | 47.36335 | 21.99608 | 34681 ft | 477 kts | 93° |
| 2026-04-20 18:18 | 47.35993 | 22.04481 | 33958 ft | 480 kts | 101° |
| 2026-04-20 18:19 | 47.34907 | 22.09199 | 32755 ft | 492 kts | 120° |
| 2026-04-20 18:19 | 47.33076 | 22.13413 | 32258 ft | 484 kts | 126° |
| 2026-04-20 18:19 | 47.31205 | 22.17495 | 31780 ft | 479 kts | 126° |
| 2026-04-20 18:19 | 47.29363 | 22.21573 | 31227 ft | 476 kts | 126° |
| 2026-04-20 18:20 | 47.27517 | 22.25679 | 30105 ft | 485 kts | 126° |
| 2026-04-20 18:20 | 47.25639 | 22.29849 | 29002 ft | 489 kts | 126° |
| 2026-04-20 18:20 | 47.23761 | 22.34006 | 28218 ft | 485 kts | 126° |
| 2026-04-20 18:20 | 47.21887 | 22.38132 | 27500 ft | 480 kts | 126° |
| 2026-04-20 18:21 | 47.20059 | 22.42139 | 26822 ft | 474 kts | 126° |
| 2026-04-20 18:21 | 47.18225 | 22.46142 | 26174 ft | 469 kts | 127° |
| 2026-04-20 18:21 | 47.16400 | 22.50116 | 25515 ft | 465 kts | 127° |
| 2026-04-20 18:21 | 47.14615 | 22.53996 | 25296 ft | 450 kts | 127° |
| 2026-04-20 18:22 | 47.12884 | 22.57761 | 25166 ft | 436 kts | 127° |
| 2026-04-20 18:22 | 47.11209 | 22.61404 | 25029 ft | 424 kts | 127° |
| 2026-04-20 18:22 | 47.09597 | 22.64903 | 24910 ft | 413 kts | 127° |
| 2026-04-20 18:22 | 47.08000 | 22.68355 | 24725 ft | 404 kts | 127° |
| 2026-04-20 18:23 | 47.06414 | 22.71773 | 24213 ft | 406 kts | 127° |
| 2026-04-20 18:23 | 47.04825 | 22.75197 | 23743 ft | 405 kts | 128° |
| 2026-04-20 18:23 | 47.03235 | 22.78623 | 23203 ft | 406 kts | 128° |
| 2026-04-20 18:23 | 47.01647 | 22.82045 | 22719 ft | 404 kts | 127° |
| 2026-04-20 18:24 | 47.00068 | 22.85441 | 22237 ft | 401 kts | 127° |
| 2026-04-20 18:24 | 46.98516 | 22.88778 | 21748 ft | 399 kts | 127° |
| 2026-04-20 18:24 | 46.96958 | 22.92125 | 21264 ft | 397 kts | 127° |
| 2026-04-20 18:24 | 46.95401 | 22.95462 | 20787 ft | 395 kts | 127° |
| 2026-04-20 18:25 | 46.93856 | 22.98774 | 20297 ft | 392 kts | 127° |
| 2026-04-20 18:25 | 46.92319 | 23.02069 | 19813 ft | 390 kts | 127° |
| 2026-04-20 18:25 | 46.90795 | 23.05335 | 19341 ft | 388 kts | 127° |
| 2026-04-20 18:25 | 46.89271 | 23.08595 | 18860 ft | 385 kts | 126° |
| 2026-04-20 18:26 | 46.87783 | 23.11773 | 18433 ft | 382 kts | 126° |
| 2026-04-20 18:26 | 46.86283 | 23.14969 | 18033 ft | 377 kts | 126° |
| 2026-04-20 18:26 | 46.84791 | 23.18134 | 17504 ft | 375 kts | 126° |
| 2026-04-20 18:26 | 46.83320 | 23.21253 | 16960 ft | 371 kts | 126° |
| 2026-04-20 18:27 | 46.81876 | 23.24316 | 16464 ft | 358 kts | 126° |
| 2026-04-20 18:27 | 46.80492 | 23.27254 | 16048 ft | 345 kts | 126° |
| 2026-04-20 18:27 | 46.79153 | 23.30094 | 15623 ft | 334 kts | 126° |
| 2026-04-20 18:27 | 46.77843 | 23.32866 | 15208 ft | 330 kts | 126° |
| 2026-04-20 18:28 | 46.76534 | 23.35629 | 14802 ft | 330 kts | 126° |
| 2026-04-20 18:28 | 46.75227 | 23.38385 | 14389 ft | 330 kts | 126° |
| 2026-04-20 18:28 | 46.73933 | 23.41109 | 13984 ft | 331 kts | 125° |
| 2026-04-20 18:28 | 46.72621 | 23.43872 | 13567 ft | 331 kts | 125° |
| 2026-04-20 18:29 | 46.71315 | 23.46619 | 13128 ft | 330 kts | 125° |
| 2026-04-20 18:29 | 46.70012 | 23.49360 | 12720 ft | 328 kts | 125° |
| 2026-04-20 18:29 | 46.68712 | 23.52093 | 12298 ft | 327 kts | 125° |
| 2026-04-20 18:29 | 46.67417 | 23.54814 | 11895 ft | 325 kts | 125° |
| 2026-04-20 18:30 | 46.66127 | 23.57522 | 11482 ft | 324 kts | 125° |
| 2026-04-20 18:30 | 46.64841 | 23.60218 | 11087 ft | 323 kts | 125° |
| 2026-04-20 18:30 | 46.63557 | 23.62907 | 10676 ft | 321 kts | 125° |
| 2026-04-20 18:30 | 46.62313 | 23.65513 | 10414 ft | 312 kts | 125° |
| 2026-04-20 18:31 | 46.61090 | 23.68074 | 9927 ft | 306 kts | 124° |
| 2026-04-20 18:31 | 46.59888 | 23.70587 | 9489 ft | 299 kts | 124° |
| 2026-04-20 18:31 | 46.58703 | 23.73057 | 9175 ft | 295 kts | 124° |
| 2026-04-20 18:31 | 46.57528 | 23.75502 | 8811 ft | 295 kts | 124° |
| 2026-04-20 18:32 | 46.56355 | 23.77941 | 8466 ft | 293 kts | 124° |
| 2026-04-20 18:32 | 46.55191 | 23.80355 | 8174 ft | 290 kts | 125° |
| 2026-04-20 18:32 | 46.54033 | 23.82756 | 7892 ft | 287 kts | 124° |
| 2026-04-20 18:32 | 46.52895 | 23.85122 | 7611 ft | 285 kts | 124° |
| 2026-04-20 18:33 | 46.51767 | 23.87463 | 7320 ft | 280 kts | 125° |
| 2026-04-20 18:33 | 46.50657 | 23.89762 | 7022 ft | 275 kts | 125° |
| 2026-04-20 18:33 | 46.49575 | 23.92000 | 6723 ft | 271 kts | 125° |
| 2026-04-20 18:33 | 46.48504 | 23.94219 | 6426 ft | 265 kts | 124° |
| 2026-04-20 18:34 | 46.47459 | 23.96383 | 6160 ft | 256 kts | 124° |
| 2026-04-20 18:34 | 46.46454 | 23.98465 | 5915 ft | 246 kts | 124° |
| 2026-04-20 18:34 | 46.46136 | 23.99123 | 5834 ft | 243 kts | 125° |
| 2026-04-20 18:34 | 46.45299 | 24.00852 | 5630 ft | 235 kts | 125° |
| 2026-04-20 18:35 | 46.44365 | 24.02778 | 5411 ft | 231 kts | 125° |
| 2026-04-20 18:35 | 46.43445 | 24.04671 | 5200 ft | 229 kts | 125° |
| 2026-04-20 18:35 | 46.42560 | 24.06587 | 4950 ft | 227 kts | 116° |
| 2026-04-20 18:35 | 46.42039 | 24.08726 | 4691 ft | 224 kts | 101° |
| 2026-04-20 18:36 | 46.41755 | 24.10908 | 4426 ft | 223 kts | 97° |
| 2026-04-20 18:36 | 46.41515 | 24.13120 | 4213 ft | 220 kts | 95° |
| 2026-04-20 18:36 | 46.41637 | 24.15293 | 4118 ft | 216 kts | 71° |
| 2026-04-20 18:36 | 46.42061 | 24.17385 | 4031 ft | 213 kts | 70° |
| 2026-04-20 18:37 | 46.42473 | 24.19417 | 3873 ft | 208 kts | 70° |
| 2026-04-20 18:37 | 46.42872 | 24.21418 | 3637 ft | 205 kts | 71° |
| 2026-04-20 18:37 | 46.43260 | 24.23381 | 3363 ft | 198 kts | 71° |
| 2026-04-20 18:37 | 46.43627 | 24.25245 | 3092 ft | 186 kts | 71° |
| 2026-04-20 18:38 | 46.43968 | 24.26978 | 2849 ft | 171 kts | 71° |
| 2026-04-20 18:38 | 46.44174 | 24.28029 | 2722 ft | 157 kts | 71° |
| 2026-04-20 18:38 | 46.44463 | 24.29493 | 2511 ft | 147 kts | 71° |
| 2026-04-20 18:38 | 46.44739 | 24.30895 | 2310 ft | 143 kts | 71° |
| 2026-04-20 18:39 | 46.45012 | 24.32280 | 2116 ft | 141 kts | 72° |
| 2026-04-20 18:39 | 46.45280 | 24.33642 | 1919 ft | 140 kts | 73° |
| 2026-04-20 18:39 | 46.45547 | 24.34997 | 1723 ft | 139 kts | 73° |
| 2026-04-20 18:39 | 46.45803 | 24.36341 | 1537 ft | 138 kts | 73° |
| 2026-04-20 18:40 | 46.46068 | 24.37676 | 1354 ft | 138 kts | 72° |
| 2026-04-20 18:40 | 46.46336 | 24.39004 | 1167 ft | 136 kts | 74° |
| 2026-04-20 18:40 | 46.46594 | 24.40323 | 993 ft | 135 kts | 74° |
| 2026-04-20 18:40 | 46.46807 | 24.41413 | 975 ft | 75 kts | 74° |
| 2026-04-20 18:41 | 46.46887 | 24.41826 | 978 ft | 32 kts | 73° |
| 2026-04-20 18:41 | 46.46929 | 24.42033 | 975 ft | 12 kts | 73° |
| 2026-04-20 18:41 | 46.46953 | 24.42157 | 980 ft | 9 kts | 75° |
| 2026-04-20 18:41 | 46.46946 | 24.42232 | 975 ft | 9 kts | 145° |
| 2026-04-20 18:42 | 46.46879 | 24.42264 | 980 ft | 12 kts | 163° |
| 2026-04-20 18:42 | 46.46837 | 24.42285 | 980 ft | 5 kts | 147° |
| 2026-04-20 18:42 | 46.46842 | 24.42335 | 972 ft | 7 kts | 74° |
| 2026-04-20 18:42 | 46.46852 | 24.42395 | 980 ft | 7 kts | 75° |
| 2026-04-20 18:43 | 46.46870 | 24.42480 | 980 ft | 8 kts | 74° |
| 2026-04-20 18:43 | 46.46876 | 24.42512 | 975 ft | 3 kts | 76° |
| 2026-04-20 18:43 | 46.46866 | 24.42533 | 975 ft | 4 kts | 137° |
| 2026-04-20 18:43 | 46.46838 | 24.42545 | 975 ft | 5 kts | 170° |
| 2026-04-20 18:44 | 46.46825 | 24.42535 | 972 ft | 1 kts | 226° |
| 2026-04-20 18:44 | 46.46826 | 24.42523 | 972 ft | 0 kts | 279° |
| 2026-04-20 18:44 | 46.46826 | 24.42519 | 972 ft | 0 kts | 281° |